Time;durP1;ratioP1;P1;durP2;ratioP2;P2;SDS_P1;SDS_P2;PMS_P1;PMS_P2;Temp;Humidity;BMP_temperature;BMP_pressure;BME280_temperature;BME280_humidity;BME280_pressure;Samples;Min_cycle;Max_cycle;Signal;HPM_P1;HPM_P2
2021/03/13 00:00:40;;;;;;;5.15;2.95;;;23.80;28.40;;;;;;5034460;28;20025;-57
2021/03/13 00:03:06;;;;;;;5.88;3.17;;;23.80;28.40;;;;;;5035364;28;20476;-52
2021/03/13 00:05:36;;;;;;;4.97;2.78;;;23.80;28.40;;;;;;5028533;28;20045;-57
2021/03/13 00:08:02;;;;;;;5.63;3.20;;;23.80;28.40;;;;;;5035446;28;20049;-57
2021/03/13 00:10:28;;;;;;;5.53;3.30;;;23.80;28.40;;;;;;5019930;28;20037;-61
2021/03/13 00:12:54;;;;;;;4.30;2.80;;;23.80;28.40;;;;;;5034987;28;20468;-56
2021/03/13 00:15:20;;;;;;;4.90;3.15;;;23.80;28.40;;;;;;5031857;28;20091;-54
2021/03/13 00:17:48;;;;;;;4.63;3.03;;;23.80;28.40;;;;;;5034476;28;20112;-60
2021/03/13 00:20:17;;;;;;;5.95;2.88;;;23.80;28.40;;;;;;5027251;28;20034;-59
2021/03/13 00:22:43;;;;;;;5.10;2.70;;;23.70;28.40;;;;;;5032299;28;20364;-55
2021/03/13 00:25:10;;;;;;;4.57;2.78;;;23.70;28.40;;;;;;5017647;28;20096;-56
2021/03/13 00:27:48;;;;;;;3.50;2.50;;;23.70;28.90;;;;;;5032038;28;20029;-57
2021/03/13 00:30:20;;;;;;;4.72;2.80;;;23.70;28.40;;;;;;5035031;28;20116;-59
2021/03/13 00:32:50;;;;;;;3.88;2.33;;;23.70;28.40;;;;;;5027329;28;20038;-59
2021/03/13 00:35:16;;;;;;;4.40;2.15;;;23.60;28.40;;;;;;5032025;28;20044;-56
2021/03/13 00:37:43;;;;;;;4.10;2.30;;;23.60;28.50;;;;;;5022200;28;20040;-58
2021/03/13 00:40:12;;;;;;;3.78;2.30;;;23.60;28.50;;;;;;5034770;28;20094;-55
2021/03/13 00:42:37;;;;;;;3.58;2.20;;;23.60;28.50;;;;;;5033957;28;20033;-58
2021/03/13 00:45:04;;;;;;;4.20;2.30;;;23.60;28.50;;;;;;5034570;28;20498;-57
2021/03/13 00:47:30;;;;;;;5.80;2.08;;;23.60;28.50;;;;;;5032526;28;20095;-57
2021/03/13 00:49:59;;;;;;;4.68;2.40;;;23.60;28.50;;;;;;5034617;28;20033;-58
2021/03/13 00:52:26;;;;;;;3.83;2.10;;;23.60;28.50;;;;;;5029888;28;20439;-60
2021/03/13 00:54:51;;;;;;;3.03;2.00;;;23.60;28.50;;;;;;5033091;28;20030;-57
2021/03/13 00:57:17;;;;;;;4.68;2.10;;;23.50;28.50;;;;;;5029913;28;20044;-57
2021/03/13 00:59:43;;;;;;;2.90;1.88;;;23.60;28.50;;;;;;5033809;28;20049;-58
2021/03/13 01:02:09;;;;;;;3.05;2.00;;;23.60;28.50;;;;;;5017001;28;20365;-56
2021/03/13 01:04:34;;;;;;;2.83;1.77;;;23.50;28.50;;;;;;5027920;28;20130;-55
2021/03/13 01:07:00;;;;;;;4.32;1.83;;;23.50;28.50;;;;;;5028961;28;20053;-56
2021/03/13 01:09:26;;;;;;;2.97;1.58;;;23.50;28.50;;;;;;5034714;28;20399;-58
2021/03/13 01:11:52;;;;;;;3.35;1.98;;;23.50;28.50;;;;;;5019752;28;20044;-57
2021/03/13 01:14:18;;;;;;;2.75;1.35;;;23.50;28.50;;;;;;5021432;28;20049;-58
2021/03/13 01:16:47;;;;;;;2.75;1.75;;;23.50;28.50;;;;;;5016321;28;20026;-58
2021/03/13 01:19:13;;;;;;;4.97;1.80;;;23.50;28.50;;;;;;5033098;28;20441;-54
2021/03/13 01:21:40;;;;;;;2.25;1.35;;;23.50;28.50;;;;;;5031755;28;20032;-53
2021/03/13 01:24:09;;;;;;;3.17;1.92;;;23.50;28.50;;;;;;5017506;28;20032;-55
2021/03/13 01:26:38;;;;;;;2.63;1.40;;;23.50;28.50;;;;;;5030746;28;20029;-57
2021/03/13 01:29:07;;;;;;;2.33;1.27;;;23.50;28.60;;;;;;5034377;28;20071;-59
2021/03/13 01:31:53;;;;;;;2.72;1.40;;;23.50;28.60;;;;;;5031808;28;20121;-60
2021/03/13 01:34:27;;;;;;;1.90;1.00;;;23.40;28.50;;;;;;5023317;28;20476;-61
2021/03/13 01:37:02;;;;;;;3.75;1.63;;;23.40;28.60;;;;;;5029240;28;20099;-55
2021/03/13 01:39:30;;;;;;;2.22;1.33;;;23.40;28.60;;;;;;5024725;28;20088;-56
2021/03/13 01:41:56;;;;;;;2.08;1.15;;;23.40;28.60;;;;;;5033017;28;20116;-59
2021/03/13 01:44:22;;;;;;;2.60;0.95;;;23.40;28.60;;;;;;5034183;28;20108;-60
2021/03/13 01:46:48;;;;;;;2.22;1.10;;;23.40;28.60;;;;;;5029556;28;20053;-56
2021/03/13 01:49:26;;;;;;;2.72;1.38;;;23.40;28.70;;;;;;5019902;28;20022;-57
2021/03/13 01:51:52;;;;;;;2.05;1.15;;;23.40;28.70;;;;;;5032400;28;20022;-55
2021/03/13 01:54:17;;;;;;;2.83;1.30;;;23.40;28.70;;;;;;5033776;28;20037;-59
2021/03/13 01:56:46;;;;;;;2.40;1.27;;;23.40;28.80;;;;;;5032890;28;20029;-55
2021/03/13 01:59:12;;;;;;;2.30;1.05;;;23.40;28.80;;;;;;5032883;28;20038;-58
2021/03/13 02:01:44;;;;;;;3.28;1.38;;;23.40;28.80;;;;;;5032307;28;20401;-58
2021/03/13 02:04:14;;;;;;;2.40;1.10;;;23.40;28.80;;;;;;5030173;28;20022;-58
2021/03/13 02:07:20;;;;;;;2.70;1.20;;;23.40;28.80;;;;;;5032666;28;20068;-60
2021/03/13 02:10:09;;;;;;;1.98;0.95;;;23.40;28.90;;;;;;5022768;28;20508;-56
2021/03/13 02:12:58;;;;;;;2.40;1.00;;;23.40;28.90;;;;;;5022172;28;20120;-58
2021/03/13 02:15:55;;;;;;;2.05;0.93;;;23.40;29.00;;;;;;5002401;28;20048;-55
2021/03/13 02:18:39;;;;;;;2.55;0.80;;;23.40;29.00;;;;;;5018328;28;20396;-57
2021/03/13 02:21:15;;;;;;;1.75;0.88;;;23.30;29.00;;;;;;5021591;28;20342;-55
2021/03/13 02:23:54;;;;;;;1.15;0.70;;;23.30;29.00;;;;;;5021285;28;20352;-58
2021/03/13 02:26:51;;;;;;;2.22;0.77;;;23.30;29.10;;;;;;5021945;28;20044;-58
2021/03/13 02:29:48;;;;;;;1.83;1.00;;;23.30;29.10;;;;;;5024885;28;20376;-57
2021/03/13 02:32:24;;;;;;;1.20;0.70;;;23.30;29.10;;;;;;5019718;28;20021;-57
2021/03/13 02:34:57;;;;;;;1.58;0.80;;;23.30;29.10;;;;;;5031092;28;20417;-56
2021/03/13 02:37:27;;;;;;;1.42;0.73;;;23.30;29.10;;;;;;5023090;28;20064;-57
2021/03/13 02:39:56;;;;;;;1.20;0.77;;;23.40;29.20;;;;;;5032211;28;20364;-55
2021/03/13 02:42:24;;;;;;;2.42;0.90;;;23.30;29.20;;;;;;5032392;28;20036;-57
2021/03/13 02:44:51;;;;;;;1.65;0.80;;;23.30;29.20;;;;;;5034587;28;20040;-58
2021/03/13 02:47:25;;;;;;;1.27;0.60;;;23.30;29.20;;;;;;5035991;28;20029;-59
2021/03/13 02:49:57;;;;;;;1.40;0.70;;;23.30;29.30;;;;;;5018617;28;20030;-56
2021/03/13 02:52:31;;;;;;;1.45;0.70;;;23.30;29.30;;;;;;5018798;28;20350;-57
2021/03/13 02:55:03;;;;;;;1.17;0.80;;;23.30;29.30;;;;;;5035151;28;20361;-56
2021/03/13 02:57:31;;;;;;;1.35;0.60;;;23.30;29.30;;;;;;5035588;28;20041;-55
2021/03/13 02:59:59;;;;;;;2.13;0.80;;;23.30;29.30;;;;;;5035587;28;20037;-60
2021/03/13 03:02:28;;;;;;;1.95;0.70;;;23.20;29.30;;;;;;5035199;28;20033;-58
2021/03/13 03:04:56;;;;;;;1.30;0.50;;;23.20;29.30;;;;;;5032658;28;20429;-59
2021/03/13 03:07:26;;;;;;;1.42;0.70;;;23.20;29.30;;;;;;5035450;28;20468;-55
2021/03/13 03:09:54;;;;;;;1.63;0.50;;;23.20;29.40;;;;;;5022548;28;20087;-56
2021/03/13 03:12:23;;;;;;;1.63;0.80;;;23.30;29.40;;;;;;5036004;28;20029;-55
2021/03/13 03:14:57;;;;;;;0.82;0.40;;;23.20;29.40;;;;;;5034733;28;20056;-58
2021/03/13 03:17:25;;;;;;;1.75;0.77;;;23.20;29.40;;;;;;5028221;28;20080;-58
2021/03/13 03:19:54;;;;;;;0.70;0.50;;;23.20;29.50;;;;;;5034623;28;20044;-57
2021/03/13 03:22:22;;;;;;;1.00;0.50;;;23.20;29.50;;;;;;5035596;28;20030;-54
2021/03/13 03:24:55;;;;;;;1.23;0.50;;;23.20;29.50;;;;;;5033848;28;20034;-59
2021/03/13 03:27:21;;;;;;;0.85;0.52;;;23.20;29.50;;;;;;5036712;28;20036;-57
2021/03/13 03:29:50;;;;;;;1.05;0.50;;;23.20;29.50;;;;;;5017293;28;20472;-60
2021/03/13 03:32:16;;;;;;;1.27;0.60;;;23.20;29.50;;;;;;5035080;28;20026;-56
2021/03/13 03:34:43;;;;;;;1.70;0.75;;;23.10;29.50;;;;;;5032826;28;20045;-59
2021/03/13 03:37:09;;;;;;;1.48;0.60;;;23.10;29.60;;;;;;5035277;28;20033;-57
2021/03/13 03:39:36;;;;;;;0.85;0.50;;;23.10;29.60;;;;;;5019617;28;20025;-62
2021/03/13 03:42:06;;;;;;;1.30;0.40;;;23.10;29.60;;;;;;5021787;28;20037;-58
2021/03/13 03:44:46;;;;;;;0.73;0.50;;;23.10;29.60;;;;;;5015326;28;20044;-59
2021/03/13 03:47:19;;;;;;;1.30;0.55;;;23.10;29.60;;;;;;5016692;28;20402;-57
2021/03/13 03:49:49;;;;;;;1.02;0.60;;;23.10;29.70;;;;;;5017995;28;20040;-55
2021/03/13 03:52:33;;;;;;;1.08;0.52;;;23.10;29.70;;;;;;5015368;28;20029;-59
2021/03/13 03:55:00;;;;;;;1.27;0.55;;;23.10;29.70;;;;;;5021380;28;20460;-59
2021/03/13 03:57:28;;;;;;;0.63;0.30;;;23.10;29.70;;;;;;5035506;28;20109;-58
2021/03/13 03:59:56;;;;;;;0.82;0.47;;;23.00;30.10;;;;;;5035049;28;20120;-57
2021/03/13 04:02:24;;;;;;;1.02;0.43;;;23.00;29.70;;;;;;5034807;28;20029;-57
2021/03/13 04:04:52;;;;;;;1.20;0.47;;;23.10;29.80;;;;;;5035559;28;20099;-59
2021/03/13 04:07:18;;;;;;;1.23;0.50;;;23.00;29.70;;;;;;5034575;28;20390;-56
2021/03/13 04:09:46;;;;;;;0.77;0.40;;;23.00;29.80;;;;;;5036029;28;20044;-59
2021/03/13 04:12:12;;;;;;;0.90;0.45;;;23.00;29.80;;;;;;5030203;28;20055;-57
2021/03/13 04:14:40;;;;;;;1.17;0.50;;;23.00;29.80;;;;;;5034656;28;20470;-56
2021/03/13 04:17:06;;;;;;;1.33;0.50;;;23.00;29.80;;;;;;5035114;28;20121;-55
2021/03/13 04:19:33;;;;;;;1.08;0.38;;;23.00;29.80;;;;;;5030841;28;20033;-54
2021/03/13 04:21:59;;;;;;;0.80;0.50;;;23.00;29.80;;;;;;5035075;28;20030;-57
2021/03/13 04:24:27;;;;;;;0.73;0.43;;;23.00;29.90;;;;;;5026945;28;20106;-56
2021/03/13 04:26:54;;;;;;;1.23;0.57;;;22.90;29.80;;;;;;5035754;28;20036;-56
2021/03/13 04:29:20;;;;;;;0.80;0.50;;;22.90;29.80;;;;;;5033474;28;20053;-60
2021/03/13 04:31:47;;;;;;;0.90;0.50;;;23.00;29.90;;;;;;5032523;28;20051;-55
2021/03/13 04:34:15;;;;;;;1.13;0.50;;;22.90;29.90;;;;;;5034983;28;20191;-58
2021/03/13 04:36:41;;;;;;;1.33;0.50;;;22.90;29.90;;;;;;5034207;28;20361;-58
2021/03/13 04:39:08;;;;;;;0.75;0.45;;;22.90;29.90;;;;;;5033652;28;20061;-59
2021/03/13 04:41:35;;;;;;;1.40;0.47;;;22.90;29.90;;;;;;5028264;28;20036;-59
2021/03/13 04:44:04;;;;;;;0.65;0.30;;;22.90;30.00;;;;;;5031132;28;20071;-57
2021/03/13 04:46:35;;;;;;;1.77;0.50;;;22.90;30.00;;;;;;5034557;28;20448;-61
2021/03/13 04:49:05;;;;;;;1.40;0.52;;;22.90;30.00;;;;;;5035105;28;20044;-59
2021/03/13 04:51:32;;;;;;;0.93;0.40;;;22.80;30.00;;;;;;5033872;28;20040;-57
2021/03/13 04:53:58;;;;;;;0.88;0.40;;;22.90;30.00;;;;;;5035237;28;20042;-54
2021/03/13 04:56:24;;;;;;;0.50;0.30;;;22.80;30.00;;;;;;5033173;28;20033;-57
2021/03/13 04:58:50;;;;;;;0.98;0.40;;;22.80;30.00;;;;;;5031502;28;20033;-60
2021/03/13 05:01:15;;;;;;;0.60;0.50;;;22.80;30.00;;;;;;5033966;28;20029;-56
2021/03/13 05:03:41;;;;;;;1.98;0.32;;;22.80;30.00;;;;;;5034660;28;20034;-54
2021/03/13 05:06:07;;;;;;;1.10;0.40;;;22.80;30.00;;;;;;5029676;28;20022;-58
2021/03/13 05:08:33;;;;;;;0.80;0.50;;;22.80;30.00;;;;;;5033383;28;20482;-58
2021/03/13 05:10:59;;;;;;;0.47;0.30;;;22.80;30.10;;;;;;5033997;28;20034;-60
2021/03/13 05:13:25;;;;;;;0.93;0.55;;;22.80;30.10;;;;;;5034586;28;20049;-60
2021/03/13 05:15:51;;;;;;;0.70;0.32;;;22.80;30.10;;;;;;5033637;28;20029;-58
2021/03/13 05:18:17;;;;;;;1.13;0.40;;;22.80;30.10;;;;;;5018102;28;20471;-58
2021/03/13 05:20:43;;;;;;;0.60;0.30;;;22.70;30.10;;;;;;5034828;28;20135;-58
2021/03/13 05:23:08;;;;;;;0.88;0.32;;;22.70;30.10;;;;;;5017440;28;20030;-56
2021/03/13 05:25:34;;;;;;;0.30;0.28;;;22.70;30.20;;;;;;5034817;28;20056;-60
2021/03/13 05:28:00;;;;;;;0.40;0.20;;;22.70;30.20;;;;;;5026453;28;20060;-59
2021/03/13 05:30:26;;;;;;;0.73;0.30;;;22.70;30.20;;;;;;5034219;28;20067;-55
2021/03/13 05:32:52;;;;;;;0.68;0.30;;;22.70;30.20;;;;;;5033246;28;20025;-56
2021/03/13 05:35:17;;;;;;;1.75;0.40;;;22.70;30.30;;;;;;5033926;28;20049;-59
2021/03/13 05:37:43;;;;;;;1.00;0.40;;;22.70;30.90;;;;;;5020343;28;20061;-58
2021/03/13 05:40:10;;;;;;;1.38;0.40;;;22.70;30.30;;;;;;5014730;28;20030;-57
2021/03/13 05:42:37;;;;;;;0.63;0.30;;;22.70;30.30;;;;;;5030070;28;20457;-55
2021/03/13 05:45:08;;;;;;;0.85;0.40;;;22.60;30.40;;;;;;5034227;28;20413;-57
2021/03/13 05:47:36;;;;;;;0.52;0.32;;;22.70;30.40;;;;;;5024382;28;20026;-58
2021/03/13 05:50:06;;;;;;;0.73;0.45;;;22.60;30.40;;;;;;5024371;28;20037;-58
2021/03/13 05:52:34;;;;;;;0.98;0.28;;;22.60;30.50;;;;;;5033156;28;20029;-56
2021/03/13 05:55:03;;;;;;;0.55;0.40;;;22.60;30.50;;;;;;5031791;28;20034;-57
2021/03/13 05:57:30;;;;;;;1.60;0.50;;;22.60;30.50;;;;;;5034166;28;20048;-58
2021/03/13 05:59:56;;;;;;;1.05;0.30;;;22.60;30.60;;;;;;5024638;28;20034;-60
2021/03/13 06:02:22;;;;;;;0.57;0.22;;;22.60;30.60;;;;;;5023640;28;20084;-56
2021/03/13 06:04:55;;;;;;;0.50;0.20;;;22.60;30.60;;;;;;5029180;28;20034;-59
2021/03/13 06:07:23;;;;;;;0.90;0.40;;;22.60;30.70;;;;;;5014375;28;20049;-57
2021/03/13 06:09:57;;;;;;;0.57;0.30;;;22.60;30.70;;;;;;5024889;28;20025;-59
2021/03/13 06:12:23;;;;;;;1.03;0.40;;;22.50;30.80;;;;;;5032046;28;20056;-55
2021/03/13 06:14:51;;;;;;;0.98;0.30;;;22.50;30.80;;;;;;5034017;28;20362;-58
2021/03/13 06:17:17;;;;;;;1.05;0.50;;;22.50;31.50;;;;;;5031348;28;20018;-58
2021/03/13 06:19:57;;;;;;;0.30;0.30;;;22.50;30.90;;;;;;5036968;28;20107;-57
2021/03/13 06:22:43;;;;;;;1.00;0.20;;;22.40;31.00;;;;;;5025287;28;20062;-58
2021/03/13 06:25:20;;;;;;;1.23;0.28;;;22.40;31.10;;;;;;5018432;28;20045;-50
2021/03/13 06:28:00;;;;;;;0.57;0.30;;;22.40;31.10;;;;;;5034189;28;20384;-56
2021/03/13 06:30:34;;;;;;;0.50;0.28;;;22.30;31.00;;;;;;5037855;28;20030;-59
2021/03/13 06:33:17;;;;;;;0.38;0.22;;;22.30;30.90;;;;;;5025375;28;20042;-59
2021/03/13 06:35:43;;;;;;;0.80;0.20;;;22.30;30.80;;;;;;5024993;28;20100;-58
2021/03/13 06:38:21;;;;;;;0.40;0.30;;;22.30;30.80;;;;;;5035671;28;20036;-55
2021/03/13 06:40:48;;;;;;;0.85;0.30;;;22.40;30.70;;;;;;5017942;28;20069;-58
2021/03/13 06:43:32;;;;;;;0.60;0.20;;;22.40;30.60;;;;;;5019226;28;20042;-56
2021/03/13 06:46:18;;;;;;;0.38;0.17;;;22.40;30.50;;;;;;5035080;28;20026;-58
2021/03/13 06:48:50;;;;;;;0.40;0.30;;;22.40;30.50;;;;;;5027433;28;20069;-55
2021/03/13 06:51:38;;;;;;;0.40;0.20;;;22.40;30.50;;;;;;5037182;28;20026;-53
2021/03/13 06:54:15;;;;;;;0.47;0.20;;;22.40;30.50;;;;;;5035650;28;20056;-56
2021/03/13 06:56:53;;;;;;;0.20;0.20;;;22.40;30.50;;;;;;5022970;28;20116;-58
2021/03/13 06:59:35;;;;;;;0.30;0.10;;;22.40;30.50;;;;;;5033809;28;20037;-56
2021/03/13 07:02:09;;;;;;;1.17;0.40;;;22.40;30.60;;;;;;5026898;28;20029;-55
2021/03/13 07:04:37;;;;;;;0.22;0.20;;;22.40;30.60;;;;;;5027877;28;20052;-55
2021/03/13 07:07:07;;;;;;;0.20;0.13;;;22.40;30.60;;;;;;5025211;28;20038;-59
2021/03/13 07:09:48;;;;;;;0.20;0.15;;;22.40;30.50;;;;;;5028908;28;20053;-57
2021/03/13 07:12:24;;;;;;;0.88;0.30;;;22.40;30.50;;;;;;5017228;28;20525;-53
2021/03/13 07:14:51;;;;;;;1.90;0.30;;;22.30;30.40;;;;;;5025011;28;20392;-56
2021/03/13 07:17:18;;;;;;;0.70;0.35;;;22.40;30.40;;;;;;5017393;28;20038;-55
2021/03/13 07:19:44;;;;;;;0.50;0.17;;;22.30;30.30;;;;;;5024418;28;20021;-56
2021/03/13 07:22:14;;;;;;;1.35;0.38;;;22.30;30.30;;;;;;5035723;28;20033;-58
2021/03/13 07:24:52;;;;;;;0.45;0.20;;;22.30;30.20;;;;;;5036226;28;20033;-57
2021/03/13 07:27:22;;;;;;;0.63;0.30;;;22.40;30.10;;;;;;5036500;28;20037;-58
2021/03/13 07:29:50;;;;;;;0.43;0.28;;;22.40;30.10;;;;;;5023612;28;20029;-56
2021/03/13 07:32:20;;;;;;;0.63;0.30;;;22.30;30.00;;;;;;5031551;28;20057;-58
2021/03/13 07:34:47;;;;;;;1.13;0.40;;;22.30;30.00;;;;;;5030490;28;20334;-58
2021/03/13 07:37:18;;;;;;;0.82;0.30;;;22.30;30.00;;;;;;5036175;28;20038;-58
2021/03/13 07:39:50;;;;;;;0.85;0.35;;;22.30;30.00;;;;;;5036106;28;20099;-58
2021/03/13 07:42:19;;;;;;;0.98;0.38;;;22.30;29.90;;;;;;5032149;28;20076;-53
2021/03/13 07:44:46;;;;;;;2.28;0.40;;;22.30;30.40;;;;;;5032699;28;20117;-52
2021/03/13 07:47:14;;;;;;;0.70;0.30;;;22.30;29.90;;;;;;5035152;28;20087;-52
2021/03/13 07:49:41;;;;;;;1.50;0.70;;;22.30;29.90;;;;;;5018968;28;20041;-50
2021/03/13 07:52:10;;;;;;;0.77;0.40;;;22.20;29.80;;;;;;5033092;28;20105;-53
2021/03/13 07:54:43;;;;;;;2.08;0.60;;;22.20;29.90;;;;;;5032421;28;20041;-48
2021/03/13 07:57:14;;;;;;;1.88;0.65;;;22.20;30.00;;;;;;5021534;28;20337;-51
2021/03/13 07:59:44;;;;;;;2.30;0.50;;;22.20;30.00;;;;;;5035952;28;20348;-51
2021/03/13 08:02:46;;;;;;;3.03;0.52;;;22.20;30.10;;;;;;5035024;28;20091;-57
2021/03/13 08:05:16;;;;;;;1.13;0.50;;;22.30;30.10;;;;;;5021912;28;20037;-53
2021/03/13 08:07:59;;;;;;;1.63;0.77;;;22.40;30.10;;;;;;5032165;28;20042;-51
2021/03/13 08:10:43;;;;;;;3.10;0.63;;;22.50;30.00;;;;;;5035008;28;20444;-57
2021/03/13 08:13:12;;;;;;;2.00;0.60;;;22.60;30.00;;;;;;5032887;28;20076;-58
2021/03/13 08:15:40;;;;;;;1.83;0.60;;;22.70;29.90;;;;;;5029773;28;20022;-57
2021/03/13 08:18:13;;;;;;;1.90;0.60;;;22.80;29.80;;;;;;5027549;28;20029;-52
2021/03/13 08:20:39;;;;;;;1.30;0.60;;;22.90;29.70;;;;;;5015483;28;20046;-59
2021/03/13 08:23:11;;;;;;;3.95;0.55;;;23.00;29.70;;;;;;5018370;28;20030;-52
2021/03/13 08:25:51;;;;;;;3.78;1.00;;;23.10;29.60;;;;;;5026922;28;20176;-50
2021/03/13 08:28:45;;;;;;;2.50;0.82;;;23.20;29.50;;;;;;5036654;28;20029;-54
2021/03/13 08:33:50;;;;;;;2.58;0.77;;;23.30;29.30;;;;;;5034064;28;20045;-57
2021/03/13 08:36:18;;;;;;;1.48;0.75;;;23.40;29.20;;;;;;5019759;28;20398;-55
2021/03/13 08:38:57;;;;;;;1.98;0.70;;;23.50;29.20;;;;;;5034345;28;20124;-59
2021/03/13 08:41:42;;;;;;;1.27;0.40;;;23.60;29.10;;;;;;5034363;28;20111;-57
2021/03/13 08:44:13;;;;;;;1.52;0.50;;;23.60;29.00;;;;;;5030289;28;20033;-58
2021/03/13 08:46:42;;;;;;;1.52;0.75;;;23.70;29.00;;;;;;5031362;28;20429;-56
2021/03/13 08:49:08;;;;;;;2.20;0.63;;;23.80;28.90;;;;;;5022960;28;20091;-53
2021/03/13 08:51:35;;;;;;;1.30;0.70;;;23.80;28.90;;;;;;5021842;28;20037;-56
2021/03/13 08:54:05;;;;;;;3.17;1.05;;;23.90;28.90;;;;;;5030297;28;20567;-55
2021/03/13 08:56:38;;;;;;;1.63;0.60;;;24.00;28.90;;;;;;5037420;28;20034;-57
2021/03/13 08:59:24;;;;;;;1.55;0.60;;;24.00;28.80;;;;;;5019421;28;20094;-57
2021/03/13 09:02:04;;;;;;;2.13;0.60;;;24.10;28.70;;;;;;5032780;28;20029;-56
2021/03/13 09:04:35;;;;;;;4.72;0.90;;;24.20;28.70;;;;;;5024736;28;20341;-58
2021/03/13 09:07:03;;;;;;;2.67;0.60;;;24.30;28.70;;;;;;5015488;28;20046;-55
2021/03/13 09:09:32;;;;;;;1.52;0.70;;;24.30;28.60;;;;;;5023475;28;20050;-55
2021/03/13 09:12:01;;;;;;;2.63;0.80;;;24.40;28.60;;;;;;5034103;28;20030;-55
2021/03/13 09:14:27;;;;;;;2.72;0.85;;;24.40;28.60;;;;;;5025481;28;20041;-56
2021/03/13 09:16:54;;;;;;;1.98;1.00;;;24.50;28.50;;;;;;5030087;28;20022;-60
2021/03/13 09:19:22;;;;;;;2.13;0.85;;;24.60;29.00;;;;;;5028578;28;20064;-49
2021/03/13 09:22:00;;;;;;;3.85;1.02;;;24.70;28.60;;;;;;5034339;28;20028;-51
2021/03/13 09:24:28;;;;;;;1.98;0.73;;;24.70;28.70;;;;;;5020826;28;20112;-54
2021/03/13 09:27:04;;;;;;;4.85;1.38;;;24.80;28.80;;;;;;5025293;28;20021;-55
2021/03/13 09:29:33;;;;;;;3.95;1.17;;;24.80;28.80;;;;;;5025937;28;20036;-53
2021/03/13 09:32:02;;;;;;;3.95;1.35;;;24.90;28.80;;;;;;5015009;28;20038;-54
2021/03/13 09:34:30;;;;;;;4.18;1.45;;;24.90;28.90;;;;;;5018189;28;20488;-57
2021/03/13 09:36:56;;;;;;;3.50;1.33;;;24.90;28.90;;;;;;5031798;28;20103;-55
2021/03/13 09:39:27;;;;;;;4.57;1.35;;;25.00;29.10;;;;;;5033703;28;20022;-57
2021/03/13 09:42:13;;;;;;;4.25;1.30;;;25.00;29.70;;;;;;5033602;28;20388;-53
2021/03/13 09:44:45;;;;;;;3.38;1.20;;;25.10;29.30;;;;;;5033667;28;20514;-51
2021/03/13 09:47:30;;;;;;;3.40;1.40;;;25.10;29.30;;;;;;5033503;28;20070;-57
2021/03/13 09:50:06;;;;;;;4.80;1.63;;;25.20;29.30;;;;;;5023465;28;20041;-54
2021/03/13 09:52:35;;;;;;;3.33;1.23;;;25.20;29.20;;;;;;5015924;28;20030;-53
2021/03/13 09:55:08;;;;;;;3.20;1.30;;;25.20;29.20;;;;;;5020133;28;20047;-54
2021/03/13 09:57:35;;;;;;;4.65;1.58;;;25.10;29.20;;;;;;5034189;28;20095;-51
2021/03/13 10:00:06;;;;;;;3.05;1.13;;;25.10;29.20;;;;;;5023286;28;20026;-53
2021/03/13 10:02:33;;;;;;;2.45;1.00;;;25.10;29.30;;;;;;5025498;28;20124;-56
2021/03/13 10:04:59;;;;;;;3.55;1.63;;;25.10;29.30;;;;;;5034362;28;20108;-61
2021/03/13 10:07:25;;;;;;;2.70;1.15;;;25.10;29.30;;;;;;5026101;28;20377;-59
2021/03/13 10:09:52;;;;;;;4.53;1.48;;;25.10;29.20;;;;;;5032352;28;20038;-57
2021/03/13 10:12:32;;;;;;;2.55;1.15;;;25.10;29.20;;;;;;5036507;28;20056;-58
2021/03/13 10:15:22;;;;;;;2.95;0.90;;;25.10;29.20;;;;;;5042844;28;20041;-57
2021/03/13 10:17:50;;;;;;;6.28;0.90;;;25.10;29.30;;;;;;5036206;28;20102;-55
2021/03/13 10:20:17;;;;;;;1.95;0.85;;;25.10;29.30;;;;;;5035872;28;20033;-56
2021/03/13 10:22:43;;;;;;;2.33;0.85;;;25.30;29.30;;;;;;5035084;28;20033;-59
2021/03/13 10:25:09;;;;;;;3.42;1.23;;;25.30;29.30;;;;;;5036800;28;20526;-59
2021/03/13 10:27:36;;;;;;;2.10;0.90;;;25.30;29.20;;;;;;5035861;28;20334;-59
2021/03/13 10:30:05;;;;;;;2.42;1.00;;;25.40;29.10;;;;;;5035894;28;20029;-55
2021/03/13 10:32:33;;;;;;;2.72;0.68;;;25.40;29.10;;;;;;5033555;28;20033;-58
2021/03/13 10:35:10;;;;;;;2.58;0.98;;;25.50;29.00;;;;;;5035626;28;20455;-58
2021/03/13 10:37:43;;;;;;;4.13;1.00;;;25.50;28.90;;;;;;5035978;28;20052;-60
2021/03/13 10:40:30;;;;;;;2.00;0.65;;;25.50;28.90;;;;;;5033061;28;20033;-57
2021/03/13 10:43:20;;;;;;;1.63;0.77;;;25.50;28.90;;;;;;5035888;28;20041;-57
2021/03/13 10:46:01;;;;;;;1.83;0.90;;;25.60;28.80;;;;;;5034889;28;20108;-58
2021/03/13 10:48:33;;;;;;;1.40;0.65;;;25.60;28.80;;;;;;5034556;28;20025;-58
2021/03/13 10:51:00;;;;;;;2.75;1.00;;;25.50;28.70;;;;;;5035465;28;20091;-54
2021/03/13 10:53:29;;;;;;;1.77;0.77;;;25.50;28.70;;;;;;5035570;28;20116;-57
2021/03/13 10:55:56;;;;;;;3.28;1.00;;;25.50;28.60;;;;;;5035441;28;20029;-60
2021/03/13 10:58:23;;;;;;;2.38;0.85;;;25.50;29.00;;;;;;5035727;28;20033;-59
2021/03/13 11:00:50;;;;;;;2.08;0.98;;;25.40;28.50;;;;;;5031136;28;20109;-55
2021/03/13 11:03:16;;;;;;;3.47;1.27;;;25.40;28.40;;;;;;5035382;28;20037;-58
2021/03/13 11:05:42;;;;;;;1.65;0.85;;;25.40;28.30;;;;;;5032333;28;20103;-56
2021/03/13 11:08:12;;;;;;;2.80;1.50;;;25.30;28.10;;;;;;5035726;28;20515;-57
2021/03/13 11:10:38;;;;;;;3.40;1.20;;;25.30;28.10;;;;;;5032679;28;20048;-57
2021/03/13 11:13:05;;;;;;;3.85;1.33;;;25.20;28.00;;;;;;5029842;28;20385;-56
2021/03/13 11:15:31;;;;;;;3.63;1.23;;;25.10;27.90;;;;;;5031535;28;20041;-60
2021/03/13 11:17:57;;;;;;;3.42;1.20;;;25.10;27.80;;;;;;5035462;28;20040;-57
2021/03/13 11:20:24;;;;;;;2.78;0.98;;;25.00;27.80;;;;;;5035092;28;20033;-58
2021/03/13 11:22:50;;;;;;;3.85;1.38;;;25.00;27.80;;;;;;5034185;28;20030;-58
2021/03/13 11:25:17;;;;;;;2.95;1.42;;;24.90;27.80;;;;;;5033104;28;20400;-54
2021/03/13 11:27:46;;;;;;;3.85;1.13;;;24.90;27.80;;;;;;5026792;28;20029;-61
2021/03/13 11:30:15;;;;;;;4.50;1.20;;;24.80;27.90;;;;;;5028322;28;20026;-56
2021/03/13 11:32:42;;;;;;;3.42;1.10;;;24.80;27.90;;;;;;5031501;28;20048;-59
2021/03/13 11:35:09;;;;;;;7.25;1.30;;;24.80;27.90;;;;;;5034275;28;20107;-59
2021/03/13 11:37:36;;;;;;;2.80;1.17;;;24.80;28.40;;;;;;5030812;28;20475;-60
2021/03/13 11:40:05;;;;;;;3.42;1.08;;;24.80;27.90;;;;;;5033814;28;20022;-59
2021/03/13 11:42:31;;;;;;;3.25;1.25;;;24.80;28.00;;;;;;5023591;28;20057;-56
2021/03/13 11:44:58;;;;;;;2.60;1.05;;;24.80;28.00;;;;;;5029256;28;20064;-54
2021/03/13 11:47:26;;;;;;;3.60;1.20;;;24.80;28.00;;;;;;5029306;28;20114;-52
2021/03/13 11:49:53;;;;;;;3.38;1.30;;;24.80;28.00;;;;;;5028546;28;20104;-54
2021/03/13 11:52:20;;;;;;;2.70;0.98;;;24.80;28.00;;;;;;5033218;28;20047;-53
2021/03/13 11:54:48;;;;;;;2.53;1.05;;;24.80;28.10;;;;;;5030367;28;20120;-55
2021/03/13 11:57:14;;;;;;;2.17;0.80;;;24.90;28.10;;;;;;5031388;28;20029;-56
2021/03/13 11:59:43;;;;;;;2.30;0.85;;;24.90;28.10;;;;;;5029900;28;20061;-54
2021/03/13 12:02:09;;;;;;;2.13;0.93;;;24.90;28.10;;;;;;5033759;28;20033;-48
2021/03/13 12:04:35;;;;;;;4.78;1.08;;;24.90;28.10;;;;;;5033408;28;20044;-56
2021/03/13 12:07:01;;;;;;;2.53;1.05;;;24.90;28.10;;;;;;5032376;28;20350;-59
2021/03/13 12:09:27;;;;;;;1.73;0.70;;;25.00;28.10;;;;;;5031490;28;20059;-53
2021/03/13 12:11:53;;;;;;;3.42;1.27;;;25.00;28.20;;;;;;5032560;28;20044;-54
2021/03/13 12:14:19;;;;;;;3.42;1.30;;;25.00;28.20;;;;;;5028278;28;20045;-53
2021/03/13 12:16:45;;;;;;;3.05;1.60;;;25.00;28.20;;;;;;5028125;28;20041;-52
2021/03/13 12:19:12;;;;;;;2.50;1.10;;;25.00;28.20;;;;;;5032364;28;20025;-50
2021/03/13 12:21:39;;;;;;;2.20;1.30;;;25.00;28.20;;;;;;5029890;28;20033;-56
2021/03/13 12:24:07;;;;;;;3.83;1.60;;;25.00;28.20;;;;;;5026754;28;20021;-56
2021/03/13 12:26:33;;;;;;;5.30;1.88;;;25.00;28.20;;;;;;5030554;28;20025;-59
2021/03/13 12:28:59;;;;;;;3.90;2.20;;;25.00;28.20;;;;;;5033477;28;20029;-56
2021/03/13 12:31:25;;;;;;;3.38;2.03;;;24.90;28.20;;;;;;5031189;28;20449;-57
2021/03/13 12:33:51;;;;;;;3.78;2.38;;;24.90;28.20;;;;;;5029013;28;20052;-55
2021/03/13 12:36:17;;;;;;;4.38;2.80;;;24.90;28.20;;;;;;5026841;28;20071;-57
2021/03/13 12:38:44;;;;;;;4.38;3.10;;;24.90;28.20;;;;;;5030494;28;20029;-56
2021/03/13 12:41:10;;;;;;;4.25;3.28;;;24.90;28.20;;;;;;5032578;28;20041;-55
2021/03/13 12:43:36;;;;;;;5.68;3.20;;;24.90;28.30;;;;;;5030305;28;20045;-56
2021/03/13 12:46:03;;;;;;;4.10;3.00;;;24.90;28.30;;;;;;5027335;28;20440;-51
2021/03/13 12:48:29;;;;;;;4.40;2.80;;;24.90;28.20;;;;;;5028366;28;20352;-52
2021/03/13 12:50:55;;;;;;;4.65;2.83;;;24.90;28.20;;;;;;5030158;28;20087;-50
2021/03/13 12:53:22;;;;;;;4.75;3.47;;;24.90;28.20;;;;;;5032140;28;20329;-50
2021/03/13 12:55:47;;;;;;;5.13;3.25;;;24.90;28.20;;;;;;5028783;28;20171;-50
2021/03/13 12:58:13;;;;;;;5.13;3.45;;;24.80;28.10;;;;;;5028865;28;20399;-57
2021/03/13 13:00:41;;;;;;;4.85;3.50;;;24.80;28.10;;;;;;5024752;28;20022;-54
2021/03/13 13:03:08;;;;;;;4.85;3.78;;;24.80;28.10;;;;;;5025845;28;20130;-57
2021/03/13 13:05:35;;;;;;;5.47;3.88;;;24.70;28.10;;;;;;5027738;28;20030;-58